Time;durP1;ratioP1;P1;durP2;ratioP2;P2;SDS_P1;SDS_P2;PMS_P1;PMS_P2;Temp;Humidity;BMP_temperature;BMP_pressure;BME280_temperature;BME280_humidity;BME280_pressure;Samples;Min_cycle;Max_cycle;Signal;HPM_P1;HPM_P2
2022/08/06 00:02:00;;;;;;;;;2.67;1.67;;;;;18.85;77.03;101990.75;5015151;28;45406;-83
2022/08/06 00:04:25;;;;;;;;;0.33;0.00;;;;;18.86;77.92;102001.69;5012891;28;45750;-83
2022/08/06 00:06:50;;;;;;;;;1.00;1.00;;;;;18.79;78.57;101995.31;5023868;28;45313;-81
2022/08/06 00:09:16;;;;;;;;;0.33;0.33;;;;;18.81;79.87;102012.59;5014014;28;45899;-83
2022/08/06 00:11:42;;;;;;;;;0.00;0.00;;;;;18.65;79.06;101997.44;5015242;28;45308;-84
2022/08/06 00:14:08;;;;;;;;;1.00;1.00;;;;;18.73;79.79;102015.72;5023863;28;45403;-79
2022/08/06 00:16:33;;;;;;;;;1.00;1.00;;;;;18.76;80.60;102015.25;5001801;28;45669;-80
2022/08/06 00:18:59;;;;;;;;;1.00;1.00;;;;;18.74;81.86;102024.88;5011972;28;45542;-80
2022/08/06 00:21:24;;;;;;;;;0.67;0.67;;;;;18.56;81.88;102000.72;5018668;28;45933;-82
2022/08/06 00:23:50;;;;;;;;;3.00;1.00;;;;;18.67;83.08;102019.41;5018373;28;45723;-82
2022/08/06 00:26:15;;;;;;;;;1.00;1.00;;;;;18.57;84.04;101997.72;5006078;28;45517;-82
2022/08/06 00:28:41;;;;;;;;;0.67;0.67;;;;;18.62;83.96;102008.13;5016824;28;45802;-81
2022/08/06 00:31:07;;;;;;;;;1.00;1.00;;;;;18.51;84.35;102012.53;5017038;28;46995;-82
2022/08/06 00:33:33;;;;;;;;;1.00;0.00;;;;;18.55;84.73;102029.59;5004611;28;45885;-81
2022/08/06 00:35:58;;;;;;;;;2.00;1.00;;;;;18.38;85.80;101999.63;5026623;28;45785;-82
2022/08/06 00:38:24;;;;;;;;;0.67;0.67;;;;;18.46;85.85;102016.00;5016641;28;45907;-80
2022/08/06 00:40:50;;;;;;;;;3.00;1.00;;;;;18.51;86.67;102032.00;5017846;28;45388;-83
2022/08/06 00:43:16;;;;;;;;;2.67;1.00;;;;;18.51;87.49;102027.28;5017321;28;45687;-82
2022/08/06 00:45:41;;;;;;;;;1.00;1.00;;;;;18.46;87.51;102021.56;5007949;28;45395;-81
2022/08/06 00:48:07;;;;;;;;;1.33;1.00;;;;;18.53;87.78;102030.69;5016414;28;45495;-81
2022/08/06 00:50:33;;;;;;;;;2.00;2.00;;;;;18.47;87.87;102023.28;5023021;28;47108;-78
2022/08/06 00:53:02;;;;;;;;;1.00;1.00;;;;;18.39;88.26;102012.44;5007046;28;45489;-78
2022/08/06 00:55:28;;;;;;;;;0.00;0.00;;;;;18.41;88.74;102026.13;5015739;28;45485;-80
2022/08/06 00:57:53;;;;;;;;;2.00;2.00;;;;;18.39;89.45;102029.13;5008363;28;45485;-81
2022/08/06 01:00:19;;;;;;;;;0.00;0.00;;;;;18.32;89.91;102020.88;5019826;28;45886;-81
2022/08/06 01:02:45;;;;;;;;;2.00;1.00;;;;;18.35;89.97;102030.66;5024070;28;45558;-83
2022/08/06 01:05:10;;;;;;;;;3.33;1.33;;;;;18.33;91.17;102032.81;5025236;28;45666;-82
2022/08/06 01:07:35;;;;;;;;;1.00;1.00;;;;;18.24;92.24;102023.94;5015953;28;45966;-81
2022/08/06 01:10:01;;;;;;;;;1.00;0.00;;;;;18.23;91.89;102015.84;5015343;28;47126;-82
2022/08/06 01:12:27;;;;;;;;;2.00;1.33;;;;;18.31;92.91;102035.81;5017312;28;45367;-79
2022/08/06 01:14:53;;;;;;;;;2.33;2.00;;;;;18.30;93.31;102028.56;5014854;28;45430;-80
2022/08/06 01:17:30;;;;;;;;;0.00;0.00;;;;;18.26;92.97;102027.31;5014298;28;45402;-81
2022/08/06 01:20:32;;;;;;;;;1.67;0.67;;;;;18.22;94.80;102044.66;5024389;28;45889;-80
2022/08/06 01:23:30;;;;;;;;;1.00;1.00;;;;;18.23;95.98;102047.22;5015971;28;45448;-82
2022/08/06 01:26:13;;;;;;;;;3.00;2.00;;;;;18.22;95.14;102058.56;4994359;28;45774;-82
2022/08/06 01:28:49;;;;;;;;;0.33;0.33;;;;;18.17;95.66;102054.56;5004205;28;45444;-82
2022/08/06 01:31:31;;;;;;;;;2.00;2.00;;;;;18.16;96.57;102040.91;5013529;28;47163;-82
2022/08/06 01:34:03;;;;;;;;;1.00;1.00;;;;;18.15;97.40;102048.34;5014801;28;45768;-82
2022/08/06 01:36:46;;;;;;;;;0.00;0.00;;;;;18.11;97.43;102047.13;5015428;28;45439;-81
2022/08/06 01:39:16;;;;;;;;;1.00;1.00;;;;;18.08;98.36;102043.94;5016992;28;45875;-82
2022/08/06 01:41:50;;;;;;;;;0.00;0.00;;;;;18.00;98.62;102037.59;5016122;28;46230;-81
2022/08/06 01:44:17;;;;;;;;;1.00;1.00;;;;;17.93;99.58;102022.09;5015756;28;45440;-82
2022/08/06 01:46:53;;;;;;;;;2.00;2.00;;;;;17.87;100.00;102017.41;5015507;28;45372;-81
2022/08/06 01:49:26;;;;;;;;;4.00;2.67;;;;;17.82;100.00;102016.16;5016975;28;45605;-82
2022/08/06 01:51:56;;;;;;;;;1.00;1.00;;;;;17.95;100.00;102043.00;5015389;28;48082;-82
2022/08/06 01:54:25;;;;;;;;;1.33;0.00;;;;;17.95;100.00;102036.59;5013943;28;45509;-82
2022/08/06 01:56:53;;;;;;;;;2.00;1.00;;;;;17.90;100.00;102036.41;5007031;28;46645;-80
2022/08/06 01:59:23;;;;;;;;;1.33;1.00;;;;;17.78;100.00;102028.81;5016568;28;45537;-82
2022/08/06 02:01:56;;;;;;;;;1.00;1.00;;;;;17.83;100.00;102045.63;4996837;28;46862;-79
2022/08/06 02:04:26;;;;;;;;;1.33;1.00;;;;;17.73;100.00;102033.34;5004081;28;45928;-79
2022/08/06 02:06:54;;;;;;;;;1.00;1.00;;;;;17.69;100.00;102034.84;5008121;28;45744;-78
2022/08/06 02:09:23;;;;;;;;;2.00;1.00;;;;;17.56;100.00;102020.00;5014428;28;45475;-82
2022/08/06 02:12:00;;;;;;;;;2.33;1.67;;;;;17.72;100.00;102039.94;5015551;28;45496;-82
2022/08/06 02:14:29;;;;;;;;;1.00;1.00;;;;;17.67;100.00;102040.63;5015504;28;45454;-81
2022/08/06 02:16:58;;;;;;;;;1.00;1.00;;;;;17.60;100.00;102024.00;5025765;28;45519;-82
2022/08/06 02:19:26;;;;;;;;;1.00;1.00;;;;;17.63;100.00;102039.38;5023195;28;47066;-81
2022/08/06 02:21:54;;;;;;;;;2.00;1.00;;;;;17.55;100.00;102026.63;5017022;28;45657;-81
2022/08/06 02:24:24;;;;;;;;;2.33;1.00;;;;;17.60;100.00;102045.38;5017853;28;45356;-82
2022/08/06 02:26:51;;;;;;;;;2.67;1.33;;;;;17.37;100.00;102002.41;5013621;28;45487;-82
2022/08/06 02:29:18;;;;;;;;;2.00;1.00;;;;;17.50;100.00;102029.22;5014460;28;45364;-80
2022/08/06 02:31:44;;;;;;;;;2.00;1.67;;;;;17.41;100.00;102025.00;5015680;28;45483;-81
2022/08/06 02:34:10;;;;;;;;;1.33;1.33;;;;;17.32;100.00;102013.34;5014735;28;45375;-81
2022/08/06 02:36:41;;;;;;;;;1.00;1.00;;;;;17.43;100.00;102028.41;5016872;28;45932;-78
2022/08/06 02:39:14;;;;;;;;;0.67;0.67;;;;;17.44;100.00;102042.06;5005630;28;46132;-79
2022/08/06 02:41:54;;;;;;;;;1.00;1.00;;;;;17.39;100.00;102033.53;5006721;28;45502;-79
2022/08/06 02:44:34;;;;;;;;;1.00;1.00;;;;;17.36;100.00;102036.75;5021753;28;45478;-78
2022/08/06 02:47:23;;;;;;;;;1.00;1.00;;;;;17.31;100.00;102042.13;5016196;28;45571;-82
2022/08/06 02:49:54;;;;;;;;;1.00;1.00;;;;;17.29;100.00;102041.53;5018925;28;45384;-78
2022/08/06 02:52:36;;;;;;;;;0.00;0.00;;;;;17.28;100.00;102031.50;5013753;28;45714;-78
2022/08/06 02:55:24;;;;;;;;;1.00;1.00;;;;;17.33;100.00;102034.44;5009465;28;45461;-78
2022/08/06 02:57:58;;;;;;;;;1.33;1.33;;;;;17.28;100.00;102032.34;5012185;28;45485;-79
2022/08/06 03:00:25;;;;;;;;;1.00;1.00;;;;;17.25;100.00;102023.63;5004043;28;45813;-78
2022/08/06 03:02:58;;;;;;;;;0.33;0.33;;;;;17.24;100.00;102036.63;5013661;28;46136;-79
2022/08/06 03:05:25;;;;;;;;;1.67;1.00;;;;;17.20;100.00;102040.06;5007348;28;45563;-79
2022/08/06 03:07:54;;;;;;;;;2.00;1.00;;;;;17.24;100.00;102036.63;5013521;28;45387;-79
2022/08/06 03:10:24;;;;;;;;;2.00;0.67;;;;;17.21;100.00;102033.44;5013166;28;45875;-79
2022/08/06 03:12:52;;;;;;;;;1.00;1.00;;;;;17.19;100.00;102038.38;5009775;28;46680;-79
2022/08/06 03:15:19;;;;;;;;;1.33;1.33;;;;;17.17;100.00;102023.88;5011782;28;45688;-77
2022/08/06 03:17:47;;;;;;;;;1.00;1.00;;;;;17.04;100.00;102017.34;5014876;28;45768;-82
2022/08/06 03:20:18;;;;;;;;;2.00;2.00;;;;;17.09;100.00;102038.84;5012878;28;45861;-81
2022/08/06 03:22:50;;;;;;;;;1.00;1.00;;;;;16.90;100.00;102007.38;5017317;28;45518;-83
2022/08/06 03:25:17;;;;;;;;;3.00;1.00;;;;;16.98;100.00;102018.22;5013688;28;45364;-82
2022/08/06 03:27:45;;;;;;;;;1.00;1.00;;;;;16.84;100.00;101999.91;5018836;28;45199;-82
2022/08/06 03:30:17;;;;;;;;;1.67;1.00;;;;;16.86;100.00;102004.16;5017781;28;45488;-80
2022/08/06 03:32:45;;;;;;;;;1.00;1.00;;;;;17.02;100.00;102033.34;5018294;28;45704;-79
2022/08/06 03:35:14;;;;;;;;;1.33;1.33;;;;;16.93;100.00;102020.78;5017552;28;45450;-82
2022/08/06 03:37:43;;;;;;;;;2.00;1.00;;;;;16.87;100.00;102010.59;5017130;28;45376;-81
2022/08/06 03:40:11;;;;;;;;;2.00;2.00;;;;;16.87;100.00;102017.00;5020594;28;45387;-82
2022/08/06 03:42:37;;;;;;;;;23.67;16.33;;;;;16.58;100.00;101974.03;5018874;28;47037;-83
2022/08/06 03:45:07;;;;;;;;;1.00;1.00;;;;;16.69;100.00;102000.19;5024718;28;45523;-84
2022/08/06 03:47:39;;;;;;;;;4.67;3.67;;;;;16.89;100.00;102041.72;5022591;28;45288;-84
2022/08/06 03:50:10;;;;;;;;;2.67;1.00;;;;;16.87;100.00;102039.16;5021634;28;45579;-84
2022/08/06 03:52:45;;;;;;;;;3.00;2.00;;;;;16.59;100.00;101990.44;5019903;28;47381;-84
2022/08/06 03:55:16;;;;;;;;;3.67;3.67;;;;;16.82;100.00;102032.53;5021771;28;45566;-83
2022/08/06 03:57:51;;;;;;;;;1.00;1.00;;;;;16.77;100.00;102035.97;5024097;28;45587;-84
2022/08/06 04:00:24;;;;;;;;;5.00;3.00;;;;;16.75;100.00;102027.00;5022833;28;46174;-85
2022/08/06 04:02:52;;;;;;;;;4.67;3.67;;;;;16.54;100.00;102006.88;5022198;28;47005;-85
2022/08/06 04:05:27;;;;;;;;;1.00;1.00;;;;;16.72;100.00;102036.63;5024269;28;45816;-83
2022/08/06 04:07:58;;;;;;;;;1.67;1.67;;;;;16.56;100.00;102012.19;5022759;28;45354;-85
2022/08/06 04:10:30;;;;;;;;;2.00;2.00;;;;;16.68;100.00;102029.81;5024865;28;45894;-79
2022/08/06 04:12:57;;;;;;;;;1.67;1.67;;;;;16.64;100.00;102009.16;5015911;28;45780;-79
2022/08/06 04:15:24;;;;;;;;;1.00;1.00;;;;;16.62;100.00;102014.06;5014648;28;45475;-78
2022/08/06 04:17:51;;;;;;;;;2.00;2.00;;;;;16.68;100.00;102027.03;5016314;28;45752;-79
2022/08/06 04:20:20;;;;;;;;;0.33;0.33;;;;;16.77;100.00;102042.34;5014580;28;46182;-80
2022/08/06 04:22:45;;;;;;;;;1.00;1.00;;;;;16.79;100.00;102049.59;5013899;28;47133;-80
2022/08/06 04:25:11;;;;;;;;;2.00;1.00;;;;;16.77;100.00;102052.59;5017006;28;45709;-82
2022/08/06 04:27:40;;;;;;;;;1.00;1.00;;;;;16.78;100.00;102048.72;5018232;28;45452;-81
2022/08/06 04:30:06;;;;;;;;;2.00;0.67;;;;;16.67;100.00;102044.72;5006783;28;45838;-81
2022/08/06 04:32:33;;;;;;;;;4.67;2.00;;;;;16.66;100.00;102036.63;5016351;28;47362;-81
2022/08/06 04:35:06;;;;;;;;;1.00;1.00;;;;;16.77;100.00;102042.34;5022425;28;45385;-80
2022/08/06 04:37:33;;;;;;;;;1.33;1.33;;;;;17.01;100.00;102059.34;5017218;28;45713;-82
2022/08/06 04:39:58;;;;;;;;;0.00;0.00;;;;;17.22;100.00;102057.34;5014572;28;45449;-81
2022/08/06 04:42:24;;;;;;;;;1.00;1.00;;;;;17.45;100.00;102048.44;5018876;28;45843;-82
2022/08/06 04:44:51;;;;;;;;;0.00;0.00;;;;;17.77;100.00;102046.53;5019711;28;45476;-83
2022/08/06 04:47:17;;;;;;;;;1.00;1.00;;;;;18.12;100.00;102062.69;5019454;28;45485;-81
2022/08/06 04:49:43;;;;;;;;;1.00;1.00;;;;;18.59;100.00;102069.72;5018954;28;45908;-79
2022/08/06 04:52:08;;;;;;;;;0.67;0.67;;;;;19.02;98.84;102079.97;5020328;28;45594;-79
2022/08/06 04:54:34;;;;;;;;;0.67;0.67;;;;;19.33;97.03;102053.03;5023179;28;45366;-79
2022/08/06 04:56:59;;;;;;;;;3.33;1.00;;;;;19.99;95.15;102078.19;5015473;28;45878;-78
2022/08/06 04:59:25;;;;;;;;;1.67;0.00;;;;;20.48;93.02;102075.16;5007959;28;45686;-78
2022/08/06 05:01:50;;;;;;;;;1.67;0.00;;;;;21.05;86.43;102080.06;5012700;28;47117;-79
2022/08/06 05:04:16;;;;;;;;;0.00;0.00;;;;;21.52;81.27;102072.41;5017778;28;45329;-84
2022/08/06 05:06:55;;;;;;;;;0.00;0.00;;;;;22.19;75.72;102089.50;5015468;28;45785;-81
2022/08/06 05:09:25;;;;;;;;;1.00;1.00;;;;;22.60;71.20;102078.13;5020128;28;45535;-80
2022/08/06 05:12:01;;;;;;;;;0.00;0.00;;;;;23.15;65.96;102077.19;5017521;28;45547;-78
2022/08/06 05:14:39;;;;;;;;;0.00;0.00;;;;;23.78;61.17;102094.41;5014902;28;45463;-78
2022/08/06 05:17:06;;;;;;;;;1.00;1.00;;;;;24.24;58.81;102098.78;5015373;28;45807;-79
2022/08/06 05:19:42;;;;;;;;;0.00;0.00;;;;;24.68;55.38;102096.56;5021675;28;45490;-79
2022/08/06 05:22:10;;;;;;;;;3.25;0.25;;;;;24.92;51.58;102086.88;5015514;28;46638;-78
2022/08/06 05:24:37;;;;;;;;;1.00;1.00;;;;;25.33;51.17;102093.53;5014912;28;45423;-79
2022/08/06 05:27:03;;;;;;;;;0.00;0.00;;;;;25.65;48.01;102100.91;5006895;28;45789;-77
2022/08/06 05:29:28;;;;;;;;;0.50;0.50;;;;;25.99;46.93;102093.94;5008571;28;45741;-77
2022/08/06 05:31:58;;;;;;;;;1.75;1.00;;;;;26.31;46.06;102071.16;5019506;28;47295;-80
2022/08/06 05:34:24;;;;;;;;;1.00;1.00;;;;;26.88;44.85;102096.38;5016078;28;45824;-81
2022/08/06 05:36:53;;;;;;;;;0.00;0.00;;;;;27.27;42.33;102090.84;5015286;28;45529;-82
2022/08/06 05:39:19;;;;;;;;;2.00;0.25;;;;;27.78;40.54;102097.31;5017102;28;45629;-81
2022/08/06 05:41:46;;;;;;;;;0.00;0.00;;;;;28.20;39.32;102115.63;5019768;28;47180;-78
2022/08/06 05:44:12;;;;;;;;;12.50;10.50;;;;;28.42;37.96;102108.66;5014726;28;45375;-77
2022/08/06 05:47:15;;;;;;;;;2.00;1.00;;;;;28.67;37.50;102099.97;5008876;28;45722;-81
2022/08/06 05:49:47;;;;;;;;;2.00;1.00;;;;;28.87;36.26;102093.22;4995749;28;45979;-81
2022/08/06 05:52:33;;;;;;;;;2.00;0.50;;;;;29.20;36.04;102106.66;5018352;28;46269;-81
2022/08/06 05:55:06;;;;;;;;;0.00;0.00;;;;;29.44;35.39;102109.47;5011346;28;45602;-82
2022/08/06 05:57:37;;;;;;;;;1.75;0.00;;;;;29.54;34.95;102091.53;5017215;28;45448;-82
2022/08/06 06:00:11;;;;;;;;;0.00;0.00;;;;;29.81;33.61;102102.19;5015359;28;45429;-78
2022/08/06 06:02:46;;;;;;;;;2.00;0.75;;;;;29.99;33.22;102119.44;5020198;28;46239;-80
2022/08/06 06:05:16;;;;;;;;;1.00;1.00;;;;;30.06;32.89;102109.41;5013087;28;45651;-79
2022/08/06 06:07:42;;;;;;;;;1.00;1.00;;;;;30.23;32.66;102122.97;5013321;28;45424;-80
2022/08/06 06:10:08;;;;;;;;;1.00;1.00;;;;;29.97;32.52;102094.28;5007339;28;46061;-82
2022/08/06 06:12:36;;;;;;;;;3.00;1.00;;;;;30.26;32.27;102118.69;5011753;28;45396;-83
2022/08/06 06:15:04;;;;;;;;;0.00;0.00;;;;;30.11;32.34;102120.63;5010450;28;45794;-84
2022/08/06 06:17:51;;;;;;;;;2.00;0.25;;;;;30.13;32.55;102125.97;5014911;28;45794;-82
2022/08/06 06:20:31;;;;;;;;;0.00;0.00;;;;;30.24;32.46;102132.28;5021583;28;45358;-82
2022/08/06 06:23:04;;;;;;;;;1.00;0.75;;;;;30.01;31.89;102117.13;5015859;28;47611;-83
2022/08/06 06:25:37;;;;;;;;;3.75;1.00;;;;;30.13;32.34;102116.66;5008628;28;45325;-83
2022/08/06 06:28:28;;;;;;;;;1.25;1.25;;;;;30.30;32.11;102125.41;5021996;28;45378;-80
2022/08/06 06:31:07;;;;;;;;;1.25;0.25;;;;;30.50;31.47;102117.72;5014619;28;45392;-78
2022/08/06 06:33:55;;;;;;;;;1.00;1.00;;;;;30.92;31.65;102129.94;5021387;28;45830;-80
2022/08/06 06:36:44;;;;;;;;;0.25;0.25;;;;;31.09;30.40;102118.81;5015634;28;45921;-80
2022/08/06 06:39:24;;;;;;;;;0.50;0.50;;;;;31.29;30.37;102123.22;5002396;28;45484;-81
2022/08/06 06:41:58;;;;;;;;;1.50;1.50;;;;;31.25;29.76;102110.00;5013590;28;46226;-82
2022/08/06 06:44:34;;;;;;;;;2.75;0.25;;;;;31.33;29.71;102135.63;5019656;28;47727;-81
2022/08/06 06:47:04;;;;;;;;;0.25;0.00;;;;;31.63;29.39;102121.06;5015006;28;45490;-80
2022/08/06 06:49:42;;;;;;;;;0.00;0.00;;;;;31.77;29.20;102110.53;5026928;28;45992;-80
2022/08/06 06:52:19;;;;;;;;;0.25;0.25;;;;;32.05;28.05;102116.06;5021208;28;45619;-81
2022/08/06 06:54:51;;;;;;;;;0.00;0.00;;;;;32.03;27.93;102112.72;5007938;28;45356;-80
2022/08/06 06:57:20;;;;;;;;;1.50;0.75;;;;;32.18;27.35;102120.03;5012425;28;45701;-79
2022/08/06 06:59:51;;;;;;;;;0.50;0.00;;;;;32.35;27.25;102136.34;5030604;28;45478;-80
2022/08/06 07:02:21;;;;;;;;;2.00;0.00;;;;;32.29;27.71;102118.63;5004712;28;47047;-79
2022/08/06 07:04:51;;;;;;;;;0.75;0.00;;;;;32.42;27.32;102113.19;5014418;28;48626;-79
2022/08/06 07:07:18;;;;;;;;;0.00;0.00;;;;;32.58;26.44;102111.59;5021414;28;45531;-79
2022/08/06 07:09:45;;;;;;;;;1.00;1.00;;;;;32.69;26.22;102130.03;5016035;28;45429;-80
2022/08/06 07:12:14;;;;;;;;;3.00;0.00;;;;;32.78;26.22;102113.03;5024633;28;45597;-81
2022/08/06 07:14:41;;;;;;;;;0.00;0.00;;;;;33.13;26.31;102135.94;5022494;28;46467;-79
2022/08/06 07:17:08;;;;;;;;;1.00;1.00;;;;;33.27;25.50;102132.16;5013157;28;45360;-81
2022/08/06 07:19:35;;;;;;;;;0.00;0.00;;;;;33.49;25.32;102142.53;5014034;28;45408;-80
2022/08/06 07:22:02;;;;;;;;;0.25;0.25;;;;;33.71;25.25;102147.25;5014699;28;46974;-81
2022/08/06 07:24:31;;;;;;;;;0.00;0.00;;;;;33.85;25.23;102147.97;5015503;28;45833;-78
2022/08/06 07:26:58;;;;;;;;;0.75;0.75;;;;;33.89;23.90;102163.19;5013523;28;45379;-79
2022/08/06 07:29:25;;;;;;;;;0.75;0.75;;;;;33.84;24.41;102139.78;5011598;28;45303;-79
2022/08/06 07:31:52;;;;;;;;;0.00;0.00;;;;;33.99;23.79;102132.72;5012809;28;46122;-81
2022/08/06 07:34:18;;;;;;;;;0.00;0.00;;;;;34.39;23.40;102153.28;5010009;28;47432;-79
2022/08/06 07:37:02;;;;;;;;;1.00;1.00;;;;;34.58;23.52;102134.97;5009741;28;47148;-81
2022/08/06 07:39:36;;;;;;;;;0.00;0.00;;;;;34.95;22.54;102146.75;5010841;28;45445;-82
2022/08/06 07:42:08;;;;;;;;;0.00;0.00;;;;;34.98;22.95;102134.66;5018068;28;45473;-79
2022/08/06 07:44:37;;;;;;;;;0.00;0.00;;;;;35.48;22.36;102138.75;5011369;28;46982;-80
2022/08/06 07:47:04;;;;;;;;;0.25;0.00;;;;;35.73;21.78;102145.44;5012517;28;45393;-80
2022/08/06 07:49:39;;;;;;;;;0.00;0.00;;;;;35.88;21.85;102138.31;5011839;28;45445;-78
2022/08/06 07:52:05;;;;;;;;;0.50;0.00;;;;;36.16;21.55;102140.56;5014227;28;45511;-79
2022/08/06 07:54:32;;;;;;;;;0.00;0.00;;;;;36.54;20.92;102151.75;5012885;28;45656;-79
2022/08/06 07:56:58;;;;;;;;;1.75;1.00;;;;;36.45;20.20;102130.19;5004371;28;45718;-78
2022/08/06 07:59:25;;;;;;;;;0.00;0.00;;;;;36.37;20.81;102117.69;5011079;28;45369;-79
2022/08/06 08:01:51;;;;;;;;;1.00;1.00;;;;;36.30;20.54;102143.97;5005710;28;45502;-79
2022/08/06 08:07:13;;;;;;;;;2.00;0.00;;;;;36.29;20.64;102142.31;4969760;28;45596;-82
2022/08/06 08:09:39;;;;;;;;;0.00;0.00;;;;;36.51;20.58;102145.94;5027577;28;45384;-84
2022/08/06 08:12:06;;;;;;;;;0.75;0.75;;;;;36.62;20.60;102152.88;5022439;28;47103;-78
2022/08/06 08:14:33;;;;;;;;;0.00;0.00;;;;;36.88;19.99;102140.31;4999906;28;45738;-78
2022/08/06 08:16:59;;;;;;;;;0.75;0.75;;;;;37.18;20.13;102166.63;5010951;28;46077;-78
2022/08/06 08:19:30;;;;;;;;;2.50;0.00;;;;;37.27;19.41;102164.50;5012656;28;45392;-81
2022/08/06 08:21:58;;;;;;;;;0.00;0.00;;;;;37.28;19.32;102151.06;5012194;28;45749;-83
2022/08/06 08:24:25;;;;;;;;;0.00;0.00;;;;;37.15;19.43;102169.38;5012675;28;45740;-78
2022/08/06 08:26:51;;;;;;;;;0.75;0.50;;;;;37.01;19.38;102176.28;5012711;28;45351;-81
2022/08/06 08:29:19;;;;;;;;;0.25;0.25;;;;;37.19;18.99;102159.72;5014214;28;45395;-81
2022/08/06 08:31:45;;;;;;;;;0.00;0.00;;;;;37.35;19.16;102139.00;5012584;28;45659;-82
2022/08/06 08:34:13;;;;;;;;;0.00;0.00;;;;;37.69;18.88;102166.22;5010684;28;46105;-82
2022/08/06 08:36:39;;;;;;;;;0.00;0.00;;;;;37.53;18.66;102151.00;5011789;28;45415;-81
2022/08/06 08:39:06;;;;;;;;;0.00;0.00;;;;;37.37;18.76;102137.44;5012121;28;45942;-79
2022/08/06 08:41:40;;;;;;;;;2.00;0.00;;;;;37.46;19.19;102137.31;5025332;28;45764;-82
2022/08/06 08:44:07;;;;;;;;;0.00;0.00;;;;;37.77;18.27;102135.81;5017341;28;46324;-79
2022/08/06 08:46:37;;;;;;;;;2.00;1.00;;;;;37.85;18.37;102128.25;5022903;28;45404;-77
2022/08/06 08:49:05;;;;;;;;;0.50;0.00;;;;;37.99;18.42;102143.00;5012762;28;45424;-82
2022/08/06 08:51:37;;;;;;;;;1.00;0.00;;;;;37.92;18.31;102123.59;5015788;28;45687;-78
2022/08/06 08:54:05;;;;;;;;;0.25;0.00;;;;;38.44;18.43;102143.88;5021379;28;46514;-78
2022/08/06 08:56:45;;;;;;;;;1.25;1.00;;;;;38.71;18.10;102147.91;5020156;28;45731;-84
2022/08/06 08:59:13;;;;;;;;;1.00;1.00;;;;;38.76;17.65;102164.00;5021908;28;45520;-84
2022/08/06 09:01:39;;;;;;;;;0.75;0.75;;;;;38.58;17.66;102150.00;5019428;28;45333;-85
2022/08/06 09:04:13;;;;;;;;;0.50;0.50;;;;;38.40;17.64;102120.88;5015848;28;45438;-79
2022/08/06 09:06:39;;;;;;;;;0.00;0.00;;;;;38.33;17.91;102132.13;5016315;28;45427;-81
2022/08/06 09:09:20;;;;;;;;;1.00;0.00;;;;;38.73;17.65;102145.53;5022128;28;45306;-81
2022/08/06 09:11:46;;;;;;;;;0.50;0.25;;;;;38.93;17.72;102140.69;5023880;28;45382;-80
2022/08/06 09:14:12;;;;;;;;;1.25;0.00;;;;;39.22;17.09;102137.72;5015905;28;45727;-81
2022/08/06 09:16:41;;;;;;;;;2.75;1.50;;;;;39.22;17.06;102121.31;5023681;28;45358;-80
2022/08/06 09:19:29;;;;;;;;;0.00;0.00;;;;;39.28;17.10;102144.81;5036542;28;45601;-83
2022/08/06 09:21:58;;;;;;;;;0.50;0.00;;;;;39.09;17.30;102152.16;5025830;28;45772;-83
2022/08/06 09:24:27;;;;;;;;;0.25;0.25;;;;;38.95;17.23;102154.66;5015925;28;45609;-80
2022/08/06 09:27:09;;;;;;;;;1.00;1.00;;;;;38.91;17.61;102151.72;5017677;28;45585;-81
2022/08/06 09:29:35;;;;;;;;;0.00;0.00;;;;;39.02;17.59;102152.78;5016311;28;45820;-82
2022/08/06 09:32:09;;;;;;;;;2.00;0.00;;;;;38.99;17.12;102138.38;5014834;28;46035;-80
2022/08/06 09:34:39;;;;;;;;;0.25;0.25;;;;;38.98;17.61;102136.69;5015872;28;45454;-82
2022/08/06 09:37:05;;;;;;;;;0.25;0.25;;;;;38.62;17.38;102107.09;5018331;28;45494;-80
2022/08/06 09:39:45;;;;;;;;;0.00;0.00;;;;;38.81;17.30;102138.75;5020809;28;45497;-80
2022/08/06 09:42:35;;;;;;;;;0.00;0.00;;;;;38.61;17.47;102148.41;5014143;28;46104;-83
2022/08/06 09:45:13;;;;;;;;;0.25;0.25;;;;;38.89;17.35;102150.41;5010179;28;45428;-81
2022/08/06 09:47:45;;;;;;;;;0.00;0.00;;;;;38.98;17.32;102122.34;5014641;28;45373;-81
2022/08/06 09:50:34;;;;;;;;;0.00;0.00;;;;;38.93;17.13;102154.22;5013874;28;45531;-82
2022/08/06 09:53:03;;;;;;;;;1.00;1.00;;;;;38.82;17.18;102153.91;5012540;28;46643;-81
2022/08/06 09:55:32;;;;;;;;;1.00;1.00;;;;;38.36;17.40;102101.88;5006527;28;45703;-83
2022/08/06 09:57:59;;;;;;;;;1.00;0.00;;;;;38.31;16.75;102089.50;5020874;28;45408;-81
2022/08/06 10:00:27;;;;;;;;;1.00;1.00;;;;;38.96;16.98;102151.41;5015593;28;45659;-81
2022/08/06 10:03:04;;;;;;;;;0.00;0.00;;;;;39.13;17.86;102130.13;5012929;28;47338;-81
2022/08/06 10:05:32;;;;;;;;;1.00;1.00;;;;;39.56;16.87;102135.25;5012287;28;46335;-81
2022/08/06 10:08:17;;;;;;;;;0.00;0.00;;;;;39.92;17.20;102128.22;5013023;28;45294;-83
2022/08/06 10:10:52;;;;;;;;;3.00;3.00;;;;;40.25;16.34;102104.66;5014360;28;45740;-80
2022/08/06 10:13:27;;;;;;;;;0.00;0.00;;;;;40.01;16.27;102122.28;5015074;28;45991;-82
2022/08/06 10:15:58;;;;;;;;;0.25;0.25;;;;;40.19;16.90;102137.00;5016217;28;46888;-80
2022/08/06 10:18:40;;;;;;;;;0.50;0.50;;;;;40.29;16.52;102115.41;5015042;28;45815;-81
2022/08/06 10:21:14;;;;;;;;;0.25;0.00;;;;;40.45;16.21;102139.16;5013210;28;45866;-82
2022/08/06 10:23:51;;;;;;;;;0.00;0.00;;;;;40.40;16.77;102127.94;5013711;28;45403;-80
2022/08/06 10:26:28;;;;;;;;;1.50;0.25;;;;;40.55;16.14;102129.06;4998988;28;45983;-79
2022/08/06 10:29:05;;;;;;;;;1.00;0.25;;;;;40.23;16.30;102112.84;5014833;28;45894;-78
2022/08/06 10:31:33;;;;;;;;;2.00;0.50;;;;;40.24;16.04;102108.78;5016705;28;45862;-80
2022/08/06 10:34:26;;;;;;;;;0.00;0.00;;;;;40.31;15.90;102122.44;5001200;28;45891;-81
2022/08/06 10:37:02;;;;;;;;;0.00;0.00;;;;;40.25;15.96;102116.16;5011388;28;47173;-82
2022/08/06 10:39:33;;;;;;;;;1.75;0.75;;;;;40.37;15.59;102123.78;5020627;28;45707;-81
2022/08/06 10:42:00;;;;;;;;;0.25;0.25;;;;;40.09;15.33;102089.59;5006136;28;45728;-80
2022/08/06 10:44:27;;;;;;;;;1.00;1.00;;;;;40.17;15.61;102110.66;5013469;28;45859;-82
2022/08/06 10:46:53;;;;;;;;;0.00;0.00;;;;;40.02;15.64;102090.28;5017763;28;45408;-80
2022/08/06 10:49:22;;;;;;;;;0.75;0.00;;;;;39.67;16.15;102098.97;5014112;28;45414;-81
2022/08/06 10:51:51;;;;;;;;;2.00;0.75;;;;;39.73;15.10;102106.06;5010554;28;45486;-80
2022/08/06 10:54:17;;;;;;;;;0.00;0.00;;;;;39.56;15.24;102106.53;5013535;28;45730;-81
2022/08/06 10:56:44;;;;;;;;;4.33;4.33;;;;;39.46;15.83;102100.13;5010575;28;47133;-80
2022/08/06 10:59:12;;;;;;;;;1.00;1.00;;;;;39.00;15.39;102094.13;5013756;28;45395;-78
2022/08/06 11:01:44;;;;;;;;;2.75;1.75;;;;;38.68;15.95;102094.16;5011084;28;45823;-78
2022/08/06 11:04:47;;;;;;;;;2.25;1.00;;;;;37.96;16.06;102104.47;5015743;28;45986;-79
2022/08/06 11:07:45;;;;;;;;;0.00;0.00;;;;;37.47;16.04;102095.19;5000978;28;47773;-80
2022/08/06 11:10:14;;;;;;;;;0.00;0.00;;;;;36.96;16.64;102099.28;5011686;28;45698;-78
2022/08/06 11:12:59;;;;;;;;;0.00;0.00;;;;;36.10;16.92;102073.44;5011914;28;45836;-80
2022/08/06 11:15:25;;;;;;;;;1.00;1.00;;;;;35.99;17.01;102090.16;5010958;28;45880;-82
2022/08/06 11:18:05;;;;;;;;;2.00;1.00;;;;;35.56;17.46;102097.06;5030704;28;46619;-80
2022/08/06 11:20:42;;;;;;;;;0.00;0.00;;;;;34.97;17.70;102090.22;5018483;28;45555;-81
2022/08/06 11:23:14;;;;;;;;;3.00;1.00;;;;;34.40;18.60;102100.81;5011713;28;45433;-79
2022/08/06 11:25:40;;;;;;;;;1.00;1.00;;;;;33.55;18.58;102090.00;5012702;28;45447;-81
2022/08/06 11:28:14;;;;;;;;;10.00;8.50;;;;;32.36;19.09;102053.69;5012437;28;46981;-79
2022/08/06 11:30:47;;;;;;;;;2.00;2.00;;;;;31.90;20.45;102077.56;5014797;28;45510;-79
2022/08/06 11:33:17;;;;;;;;;1.00;1.00;;;;;31.15;20.77;102068.53;5016903;28;45479;-81
2022/08/06 11:35:51;;;;;;;;;0.00;0.00;;;;;30.58;21.43;102074.53;5015761;28;45579;-80
2022/08/06 11:38:46;;;;;;;;;0.00;0.00;;;;;29.77;22.03;102096.25;5010821;28;45539;-81
2022/08/06 11:41:42;;;;;;;;;0.00;0.00;;;;;29.00;22.67;102065.41;5001045;28;45803;-80
2022/08/06 11:44:08;;;;;;;;;2.00;1.00;;;;;28.65;23.93;102093.78;4994849;28;45635;-79